Snow/Ice From: 24-10-2018 05:00 Until: 09:00 warning for: Snow/Ice Level: Yellow info button
suomi:
Liikennesää: Ajokeli muuttuu huonoksi aamulla tienpintojen jäätymisen vuoksi.

svenska:
Trafikvädret: Väglaget blir dåligt på morgonen p.g.a. tillfrysning av vägytor.

english:
Traffic weather warning: Bad road conditions are expected in the morning because of ice-covered roads. 


Thunder radar more information blitzortung!


Löydät sääaseman tiedot myös:

European Weather Network

Finland Weather Exchange

Weather Underground

AWEKAS



Weather Underground säähistoriasivu

Päivittäin yhteenveto Syyskuu 27, 2017 Yksiköt:  Metriset    Englantilaiset   Molemmat
« Edellinen Päivä
Seuraava Päivä »
Päivittäin Viikoittain Kuukausittain Vuosittain Mukautettu
  Korkea: Matala: Keskiarvo:
Lämpötila: -17.8 °C 6.1 °C 8.4 °C
Kastepiste: -17.8 °C 5.6 °C 8.1 °C
Kosteus: Humidity % 96 % 96 %
Tuulen nopeus: 0 km/h 0 km/h 0 km/h
Tuulenpuuska: 0 km/h - -
Tuuli:- - SSW
Ilmanpaine: 0 hPa 1040.5 hPa -
Sade: 0 mm    
Historical Graphs
 
 
Taulukkotiedot Syyskuu 27, 2017
Aika Lämpötila Kastepiste Ilmanpaine Tuuli Tuulen nopeus Tuulenpuuska Kosteus Sademäärä (tunneittain)
-17.8 °C -17.8 °C 0 hPa Calm     Humidity % 0 mm
00:00 9.3 °C 8.8 °C 1040.5 hPa Calm     97 % 0 mm
00:30 9 °C 8.5 °C 1040.9 hPa Calm     97 % 0 mm
00:45 8.8 °C 8.4 °C 1040.9 hPa Calm     97 % 0 mm
01:00 8.6 °C 8.1 °C 1040.9 hPa Calm     97 % 0 mm
01:15 8.3 °C 7.9 °C 1040.9 hPa Calm     97 % 0 mm
01:30 8 °C 7.4 °C 1040.9 hPa Calm     96 % 0 mm
01:45 7.7 °C 7.1 °C 1040.9 hPa Calm     96 % 0 mm
02:00 7.4 °C 6.9 °C 1040.9 hPa Calm     97 % 0 mm
02:15 7.2 °C 6.6 °C 1040.9 hPa Calm     96 % 0 mm
02:30 6.9 °C 6.3 °C 1040.9 hPa Calm     96 % 0 mm
02:45 6.8 °C 6.3 °C 1040.5 hPa Calm     97 % 0 mm
03:00 6.7 °C 6.2 °C 1040.9 hPa Calm     97 % 0 mm
03:15 6.4 °C 5.9 °C 1040.9 hPa Calm     97 % 0 mm
03:30 6.2 °C 5.8 °C 1040.9 hPa Calm     97 % 0 mm
03:45 6.1 °C 5.7 °C 1040.9 hPa Calm     97 % 0 mm
04:00 6.1 °C 5.6 °C 1040.9 hPa Calm     97 % 0 mm
04:15 6.1 °C 5.7 °C 1040.9 hPa Calm     97 % 0 mm
04:30 6.3 °C 5.8 °C 1040.9 hPa Calm     97 % 0 mm
04:45 6.7 °C 6.4 °C 1040.9 hPa Calm     98 % 0 mm
05:00 6.8 °C 6.5 °C 1040.9 hPa Calm     98 % 0 mm
05:15 7.3 °C 7 °C 1040.9 hPa Calm     98 % 0 mm
05:30 7.4 °C 7.1 °C 1040.9 hPa Calm   8 km/h 98 % 0 mm
05:45 7.3 °C 7 °C 1041.2 hPa SSW 1.6 km/h 4.8 km/h 98 % 0 mm
06:00 7.3 °C 7 °C 1041.2 hPa Calm   4.8 km/h 98 % 0 mm
06:15 7.2 °C 6.9 °C 1041.2 hPa Calm   4.8 km/h 98 % 0 mm
06:30 7.2 °C 6.9 °C 1041.2 hPa Calm   4.8 km/h 98 % 0 mm
06:45 7.2 °C 6.9 °C 1041.2 hPa Calm     98 % 0 mm
07:00 7.2 °C 6.9 °C 1041.2 hPa Calm     98 % 0 mm
07:15 7.2 °C 6.9 °C 1041.2 hPa Calm     98 % 0 mm
07:30 7.3 °C 7 °C 1041.2 hPa Calm     98 % 0 mm
07:45 7.4 °C 7.1 °C 1041.2 hPa Calm     98 % 0 mm
08:00 7.4 °C 7.1 °C 1041.2 hPa Calm     98 % 0 mm
08:15 7.6 °C 7.3 °C 1041.5 hPa Calm     98 % 0 mm
08:30 7.7 °C 7.4 °C 1041.5 hPa Calm     98 % 0 mm
08:45 7.8 °C 7.5 °C 1041.5 hPa Calm     98 % 0 mm
09:00 8 °C 7.7 °C 1041.5 hPa Calm     98 % 0 mm
09:15 8.2 °C 7.9 °C 1041.5 hPa Calm     98 % 0 mm
09:45 8.6 °C 8.3 °C 1041.5 hPa Calm   3.2 km/h 98 % 0 mm
10:00 8.8 °C 8.5 °C 1041.9 hPa Calm   4.8 km/h 98 % 0 mm
10:15 9 °C 8.7 °C 1041.9 hPa Calm     98 % 0 mm
10:30 9.2 °C 8.9 °C 1041.9 hPa Calm     98 % 0 mm
10:45 9.3 °C 9 °C 1041.9 hPa Calm     98 % 0 mm
11:00 9.5 °C 9.2 °C 1042.2 hPa Calm   1.6 km/h 98 % 0 mm
11:15 9.5 °C 9.2 °C 1042.2 hPa Calm     98 % 0 mm
11:30 9.5 °C 9.2 °C 1042.2 hPa Calm     98 % 0 mm
11:45 9.6 °C 9.3 °C 1042.2 hPa Calm     98 % 0 mm
12:00 9.7 °C 9.4 °C 1042.2 hPa Calm     98 % 0 mm
12:15 9.6 °C 9.3 °C 1042.2 hPa Calm   4.8 km/h 98 % 0 mm
12:30 9.6 °C 9.3 °C 1042.5 hPa Calm     98 % 0 mm
12:45 9.6 °C 9.3 °C 1042.2 hPa Calm     98 % 0 mm
13:00 9.7 °C 9.4 °C 1042.2 hPa Calm   3.2 km/h 98 % 0 mm
13:15 9.6 °C 9.3 °C 1042.2 hPa SSW 1.6 km/h 4.8 km/h 98 % 0 mm
13:30 9.7 °C 9.4 °C 1042.2 hPa Calm     98 % 0 mm
13:45 9.8 °C 9.5 °C 1042.5 hPa Calm     98 % 0 mm
14:00 9.8 °C 9.5 °C 1042.2 hPa Calm     98 % 0 mm
14:15 9.9 °C 9.6 °C 1042.5 hPa Calm     98 % 0 mm
14:30 9.9 °C 9.6 °C 1042.2 hPa Calm     98 % 0 mm
14:45 10 °C 9.7 °C 1042.2 hPa Calm     98 % 0 mm
15:00 10 °C 9.5 °C 1042.2 hPa Calm   1.6 km/h 97 % 0 mm
15:30 10 °C 9.5 °C 1042.2 hPa Calm   1.6 km/h 97 % 0 mm
15:45 10.1 °C 9.6 °C 1042.2 hPa Calm     97 % 0 mm
16:00 10.1 °C 9.6 °C 1042.2 hPa Calm   3.2 km/h 97 % 0 mm
16:15 10.1 °C 9.6 °C 1042.2 hPa Calm   3.2 km/h 97 % 0 mm
16:30 10 °C 9.5 °C 1042.2 hPa Calm     97 % 0 mm
16:45 10 °C 9.5 °C 1042.2 hPa Calm     97 % 0 mm
17:00 10 °C 9.5 °C 1042.2 hPa Calm   1.6 km/h 97 % 0 mm
17:15 10.1 °C 9.6 °C 1042.2 hPa Calm     97 % 0 mm
17:30 10.1 °C 9.7 °C 1042.2 hPa Calm     97 % 0 mm
17:45 10.1 °C 9.7 °C 1042.2 hPa Calm     97 % 0 mm
18:00 10.1 °C 9.7 °C 1042.2 hPa Calm     97 % 0 mm
18:15 10.1 °C 9.6 °C 1041.9 hPa Calm     97 % 0 mm
18:30 10.1 °C 9.6 °C 1042.2 hPa Calm     97 % 0 mm
18:45 10.1 °C 9.6 °C 1042.2 hPa Calm   6.4 km/h 97 % 0 mm
19:00 10 °C 9.5 °C 1042.2 hPa Calm     97 % 0 mm
19:15 9.9 °C 9.4 °C 1042.2 hPa Calm     97 % 0 mm
19:30 9.8 °C 9.4 °C 1042.2 hPa Calm     97 % 0 mm
19:45 9.8 °C 9.3 °C 1042.2 hPa Calm     97 % 0 mm
20:00 9.7 °C 9.3 °C 1042.2 hPa Calm     97 % 0 mm
20:15 9.7 °C 9.2 °C 1042.2 hPa Calm     97 % 0 mm
20:30 9.6 °C 9.2 °C 1042.2 hPa Calm     97 % 0 mm
20:45 9.6 °C 9.1 °C 1042.2 hPa Calm     97 % 0 mm
21:00 9.5 °C 9 °C 1042.5 hPa Calm     97 % 0 mm
21:15 9.4 °C 9 °C 1042.5 hPa Calm   3.2 km/h 97 % 0 mm
21:30 9.3 °C 8.9 °C 1042.5 hPa Calm   3.2 km/h 97 % 0 mm
21:45 9.3 °C 8.8 °C 1042.5 hPa Calm   1.6 km/h 97 % 0 mm
22:00 9.2 °C 8.7 °C 1042.5 hPa Calm   3.2 km/h 97 % 0 mm
22:15 9.1 °C 8.7 °C 1042.5 hPa Calm   3.2 km/h 97 % 0 mm
22:30 9.1 °C 8.6 °C 1042.5 hPa Calm     97 % 0 mm
22:45 9.1 °C 8.6 °C 1042.5 hPa Calm     97 % 0 mm
23:00 9 °C 8.5 °C 1042.9 hPa Calm     97 % 0 mm
23:15 8.9 °C 8.5 °C 1042.9 hPa Calm     97 % 0 mm
23:30 8.9 °C 8.4 °C 1042.5 hPa Calm     97 % 0 mm
23:45 8.8 °C 8.4 °C 1042.5 hPa Calm     97 % 0 mm
Esan sääasema
Terveisin Weather Underground - 2.75 mb

Alkuperäinen skripti  Jim McMurry - jmcmurry@mwt.net Sovitettu myös templatelle  Wim van der Kuil - Leuven-Template.eu

Laitteet joita käytämme:

Sääasema
Davis VP2

Sääasemaohjelma
Cumulus

Sääaseman tietokone
Asus EeePC

Palveluntarjoaja
Suncomet

Davis VP2

Cumulus

Asus EeePC

Suncomet